createdAt,value
2019-01-13T00:01:46.334Z,7.70
2019-01-13T00:04:15.340Z,7.70
2019-01-13T00:06:44.342Z,7.70
2019-01-13T00:09:13.368Z,7.70
2019-01-13T00:11:42.309Z,7.70
2019-01-13T00:14:11.201Z,7.70
2019-01-13T00:16:40.635Z,7.70
2019-01-13T00:19:09.692Z,7.60
2019-01-13T00:21:38.905Z,7.60
2019-01-13T00:24:07.948Z,7.60
2019-01-13T00:26:36.896Z,7.60
2019-01-13T00:29:06.303Z,7.60
2019-01-13T00:31:35.138Z,7.60
2019-01-13T00:34:04.724Z,7.60
2019-01-13T00:36:33.646Z,7.60
2019-01-13T00:39:02.840Z,7.60
2019-01-13T00:41:31.708Z,7.60
2019-01-13T00:44:00.501Z,7.60
2019-01-13T00:46:30.165Z,7.50
2019-01-13T00:48:59.160Z,7.50
2019-01-13T00:51:28.065Z,7.50
2019-01-13T00:53:57.143Z,7.50
2019-01-13T00:56:26.101Z,7.50
2019-01-13T00:58:55.355Z,7.50
2019-01-13T01:01:24.333Z,7.40
2019-01-13T01:03:53.361Z,7.50
2019-01-13T01:06:22.272Z,7.40
2019-01-13T01:08:51.178Z,7.40
2019-01-13T01:11:20.892Z,7.50
2019-01-13T01:13:49.665Z,7.50
2019-01-13T01:16:18.625Z,7.40
2019-01-13T01:18:47.658Z,7.40
2019-01-13T01:21:16.516Z,7.40
2019-01-13T01:23:45.369Z,7.40
2019-01-13T01:26:14.304Z,7.40
2019-01-13T01:28:44.410Z,7.40
2019-01-13T01:31:13.437Z,7.40
2019-01-13T01:33:42.672Z,7.40
2019-01-13T01:36:11.504Z,7.40
2019-01-13T01:38:40.400Z,7.40
2019-01-13T01:41:09.372Z,7.30
2019-01-13T01:43:38.262Z,7.30
2019-01-13T01:46:07.240Z,7.40
2019-01-13T01:48:36.261Z,7.30
2019-01-13T01:51:05.222Z,7.40
2019-01-13T01:53:34.209Z,7.40
2019-01-13T01:56:03.229Z,7.40
2019-01-13T01:58:32.529Z,7.40
2019-01-13T02:01:01.468Z,7.40
2019-01-13T02:03:30.501Z,7.40
2019-01-13T02:05:59.609Z,7.40
2019-01-13T02:08:28.911Z,7.40
2019-01-13T02:10:57.891Z,7.40
2019-01-13T02:13:27.021Z,7.40
2019-01-13T02:15:55.918Z,7.40
2019-01-13T02:18:24.897Z,7.40
2019-01-13T02:20:53.882Z,7.40
2019-01-13T02:23:22.861Z,7.30
2019-01-13T02:25:51.851Z,7.40
2019-01-13T02:28:20.852Z,7.40
2019-01-13T02:30:49.718Z,7.40
2019-01-13T02:33:18.557Z,7.40
2019-01-13T02:35:47.522Z,7.30
2019-01-13T02:38:16.506Z,7.30
2019-01-13T02:40:45.639Z,7.40
2019-01-13T02:43:14.555Z,7.40
2019-01-13T02:45:43.460Z,7.40
2019-01-13T02:48:12.363Z,7.40
2019-01-13T02:50:41.268Z,7.50
2019-01-13T02:53:12.194Z,7.50
2019-01-13T02:55:41.200Z,7.50
2019-01-13T02:58:10.184Z,7.60
2019-01-13T03:00:39.239Z,7.60
2019-01-13T03:03:08.349Z,7.60
2019-01-13T03:05:37.355Z,7.70
2019-01-13T03:08:06.654Z,7.70
2019-01-13T03:10:35.616Z,7.70
2019-01-13T03:13:04.805Z,7.80
2019-01-13T03:15:33.753Z,7.80
2019-01-13T03:18:03.188Z,7.80
2019-01-13T03:20:32.138Z,7.90
2019-01-13T03:23:01.098Z,7.90
2019-01-13T03:25:30.279Z,7.90
2019-01-13T03:27:59.192Z,7.90
2019-01-13T03:30:28.098Z,8.00
2019-01-13T03:32:57.717Z,7.90
2019-01-13T03:35:26.528Z,7.90
2019-01-13T03:37:55.496Z,8.00
2019-01-13T03:40:25.544Z,8.00
2019-01-13T03:42:54.934Z,8.10
2019-01-13T03:45:23.891Z,8.10
2019-01-13T03:47:52.900Z,8.10
2019-01-13T03:50:25.796Z,8.10
2019-01-13T03:52:54.892Z,8.10
2019-01-13T03:55:24.857Z,8.20
2019-01-13T03:57:54.224Z,8.20
2019-01-13T04:00:24.957Z,8.20
2019-01-13T04:02:54.497Z,8.20
2019-01-13T04:05:23.505Z,8.20
2019-01-13T04:07:53.264Z,8.20
2019-01-13T04:10:22.128Z,8.20
2019-01-13T04:12:51.369Z,8.20
2019-01-13T04:16:03.720Z,8.10
2019-01-13T04:18:33.168Z,8.10
2019-01-13T04:21:02.216Z,8.20
2019-01-13T04:23:31.340Z,8.20
2019-01-13T04:26:00.216Z,8.20
2019-01-13T04:28:29.164Z,8.30
2019-01-13T04:30:58.066Z,8.30
2019-01-13T04:33:26.944Z,8.30
2019-01-13T04:35:55.880Z,8.30
2019-01-13T04:38:24.884Z,8.30
2019-01-13T04:40:53.852Z,8.30
2019-01-13T04:43:23.085Z,8.40
2019-01-13T04:45:52.028Z,8.30
2019-01-13T04:48:21.016Z,8.30
2019-01-13T04:50:50.083Z,8.40
2019-01-13T04:53:18.953Z,8.30
2019-01-13T04:55:47.832Z,8.40
2019-01-13T04:58:16.968Z,8.40
2019-01-13T05:00:45.948Z,8.40
2019-01-13T05:03:14.756Z,8.40
2019-01-13T05:05:43.671Z,8.40
2019-01-13T05:08:12.481Z,8.40
2019-01-13T05:10:41.346Z,8.40
2019-01-13T05:13:10.300Z,8.40
2019-01-13T05:15:39.329Z,8.30
2019-01-13T05:18:08.204Z,8.40
2019-01-13T05:20:37.188Z,8.30
2019-01-13T05:23:06.073Z,8.30
2019-01-13T05:25:35.139Z,8.40
2019-01-13T05:28:04.244Z,8.40
2019-01-13T05:30:33.175Z,8.40
2019-01-13T05:33:02.197Z,8.40
2019-01-13T05:35:31.100Z,8.40
2019-01-13T05:38:00.018Z,8.30
2019-01-13T05:40:28.952Z,8.30
2019-01-13T05:42:57.938Z,8.30
2019-01-13T05:45:26.938Z,8.30
2019-01-13T05:47:55.900Z,8.30
2019-01-13T05:50:24.916Z,8.30
2019-01-13T05:55:22.957Z,8.20
2019-01-13T05:57:51.856Z,8.20
2019-01-13T06:00:26.472Z,8.20
2019-01-13T06:02:55.499Z,8.20
2019-01-13T06:05:24.489Z,8.20
2019-01-13T06:07:53.412Z,8.20
2019-01-13T06:10:22.376Z,8.20
2019-01-13T06:12:51.325Z,8.20
2019-01-13T06:15:24.560Z,8.20
2019-01-13T06:17:53.522Z,8.20
2019-01-13T06:20:24.563Z,8.30
2019-01-13T06:22:53.578Z,8.30
2019-01-13T06:25:22.484Z,8.30
2019-01-13T06:27:51.772Z,8.30
2019-01-13T06:30:24.229Z,8.30
2019-01-13T06:32:53.262Z,8.20
2019-01-13T06:35:22.133Z,8.30
2019-01-13T06:37:51.088Z,8.30
2019-01-13T06:40:21.543Z,8.30
2019-01-13T06:42:50.890Z,8.30
2019-01-13T06:45:28.925Z,8.30
2019-01-13T06:47:57.902Z,8.30
2019-01-13T06:50:26.952Z,8.30
2019-01-13T06:52:55.848Z,8.30
2019-01-13T06:55:24.884Z,8.30
2019-01-13T06:57:53.772Z,8.30
2019-01-13T07:00:24.680Z,8.40
2019-01-13T07:02:53.852Z,8.40
2019-01-13T07:05:22.764Z,8.40
2019-01-13T07:07:51.616Z,8.40
2019-01-13T07:10:20.594Z,8.40
2019-01-13T07:12:49.560Z,8.40
2019-01-13T07:15:19.720Z,8.50
2019-01-13T07:17:48.692Z,8.50
2019-01-13T07:20:19.537Z,8.40
2019-01-13T07:22:49.151Z,8.50
2019-01-13T07:25:18.128Z,8.50
2019-01-13T07:27:47.468Z,8.50
2019-01-13T07:30:22.351Z,8.50
2019-01-13T07:32:51.456Z,8.50
2019-01-13T07:35:20.807Z,8.50
2019-01-13T07:37:49.573Z,8.50
2019-01-13T07:40:20.176Z,8.50
2019-01-13T07:42:49.117Z,8.50
2019-01-13T07:45:26.058Z,8.60
2019-01-13T07:47:54.991Z,8.60
2019-01-13T07:50:23.926Z,8.50
2019-01-13T07:52:52.904Z,8.60
2019-01-13T07:55:23.124Z,8.60
2019-01-13T07:57:52.080Z,8.60
2019-01-13T08:00:37.289Z,8.70
2019-01-13T08:03:06.916Z,8.70
2019-01-13T08:05:35.888Z,8.70
2019-01-13T08:08:05.072Z,8.70
2019-01-13T08:10:34.024Z,8.70
2019-01-13T08:13:03.068Z,8.70
2019-01-13T08:15:31.981Z,8.60
2019-01-13T08:18:00.984Z,8.60
2019-01-13T08:20:32.205Z,8.80
2019-01-13T08:23:01.600Z,9.00
2019-01-13T08:25:31.184Z,9.00
2019-01-13T08:28:00.183Z,9.00
2019-01-13T08:30:29.163Z,9.00
2019-01-13T08:32:58.200Z,8.90
2019-01-13T08:35:27.410Z,8.80
2019-01-13T08:37:56.363Z,8.80
2019-01-13T08:40:25.272Z,8.70
2019-01-13T08:42:54.284Z,8.70
2019-01-13T08:45:23.268Z,8.60
2019-01-13T08:47:52.249Z,8.60
2019-01-13T08:50:25.367Z,8.60
2019-01-13T08:52:54.603Z,8.60
2019-01-13T08:55:28.410Z,8.50
2019-01-13T08:57:57.893Z,8.50
2019-01-13T09:00:36.100Z,8.50
2019-01-13T09:03:06.450Z,8.50
2019-01-13T09:05:35.941Z,8.50
2019-01-13T09:08:05.670Z,8.50
2019-01-13T09:10:34.652Z,8.50
2019-01-13T09:13:03.520Z,8.50
2019-01-13T09:15:32.512Z,8.50
2019-01-13T09:18:01.512Z,8.50
2019-01-13T09:20:31.364Z,8.50
2019-01-13T09:23:01.645Z,8.50
2019-01-13T09:25:32.425Z,8.50
2019-01-13T09:28:01.292Z,8.50
2019-01-13T09:30:30.632Z,8.50
2019-01-13T09:32:59.524Z,8.40
2019-01-13T09:35:29.233Z,8.40
2019-01-13T09:37:58.138Z,8.50
2019-01-13T09:40:29.000Z,8.50
2019-01-13T09:42:58.763Z,8.50
2019-01-13T09:45:27.909Z,8.50
2019-01-13T09:47:56.890Z,8.60
2019-01-13T09:50:25.926Z,8.60
2019-01-13T09:52:55.072Z,8.60
2019-01-13T09:55:24.773Z,8.70
2019-01-13T09:57:53.769Z,8.70
2019-01-13T10:00:30.963Z,8.70
2019-01-13T10:02:59.936Z,8.70
2019-01-13T10:05:28.805Z,8.70
2019-01-13T10:07:57.877Z,8.80
2019-01-13T10:10:27.088Z,8.80
2019-01-13T10:12:56.101Z,8.80
2019-01-13T10:15:25.695Z,8.80
2019-01-13T10:17:54.674Z,8.80
2019-01-13T10:20:23.884Z,8.90
2019-01-13T10:22:52.876Z,8.90
2019-01-13T10:25:22.041Z,8.90
2019-01-13T10:27:50.995Z,9.00
2019-01-13T10:30:22.677Z,9.00
2019-01-13T10:32:54.601Z,9.00
2019-01-13T10:35:22.987Z,9.10
2019-01-13T10:37:52.607Z,9.10
2019-01-13T10:40:23.385Z,9.10
2019-01-13T10:42:52.727Z,9.20
2019-01-13T10:45:21.750Z,9.20
2019-01-13T10:47:51.395Z,9.20
2019-01-13T10:50:22.949Z,9.20
2019-01-13T10:52:52.751Z,9.20
2019-01-13T10:55:22.261Z,9.20
2019-01-13T10:57:51.164Z,9.20
2019-01-13T11:00:25.785Z,9.20
2019-01-13T11:03:01.775Z,9.30
2019-01-13T11:05:25.756Z,9.30
2019-01-13T11:07:55.892Z,9.30
2019-01-13T11:10:24.847Z,9.30
2019-01-13T11:12:54.120Z,9.30
2019-01-13T11:15:23.140Z,9.40
2019-01-13T11:17:52.120Z,9.40
2019-01-13T11:20:26.412Z,9.40
2019-01-13T11:22:55.332Z,9.50
2019-01-13T11:25:24.308Z,9.50
2019-01-13T11:27:54.692Z,9.40
2019-01-13T11:30:24.850Z,9.50
2019-01-13T11:32:53.767Z,9.50
2019-01-13T11:35:23.043Z,9.50
2019-01-13T11:37:52.053Z,9.50
2019-01-13T11:40:23.268Z,9.60
2019-01-13T11:42:52.540Z,9.60
2019-01-13T11:45:22.707Z,9.60
2019-01-13T11:47:51.788Z,9.60
2019-01-13T11:50:21.819Z,9.60
2019-01-13T11:52:51.209Z,9.70
2019-01-13T11:55:20.777Z,9.70
2019-01-13T11:57:50.227Z,9.70
2019-01-13T12:00:25.287Z,9.80
2019-01-13T12:02:54.324Z,9.80
2019-01-13T12:05:23.264Z,9.80
2019-01-13T12:07:52.211Z,9.80
2019-01-13T12:10:21.548Z,9.80
2019-01-13T12:12:50.816Z,9.80
2019-01-13T12:15:20.745Z,9.80
2019-01-13T12:17:49.748Z,9.90
2019-01-13T12:20:20.654Z,9.90
2019-01-13T12:22:49.905Z,9.90
2019-01-13T12:25:19.808Z,9.90
2019-01-13T12:27:49.092Z,10.00
2019-01-13T12:30:29.027Z,9.90
2019-01-13T12:32:58.012Z,9.90
2019-01-13T12:35:27.337Z,10.00
2019-01-13T12:37:56.425Z,10.00
2019-01-13T12:40:26.329Z,10.00
2019-01-13T12:42:55.760Z,10.00
2019-01-13T12:45:25.248Z,10.00
2019-01-13T12:47:54.910Z,10.00
2019-01-13T12:50:26.100Z,10.00
2019-01-13T12:52:55.064Z,10.00
2019-01-13T12:55:23.985Z,10.10
2019-01-13T12:57:53.117Z,10.10
2019-01-13T13:00:24.182Z,10.10
2019-01-13T13:02:53.913Z,10.10
2019-01-13T13:05:22.853Z,10.10
2019-01-13T13:07:51.672Z,10.10
2019-01-13T13:10:38.652Z,10.20
2019-01-13T13:13:08.153Z,10.20
2019-01-13T13:15:37.036Z,10.20
2019-01-13T13:18:06.452Z,10.30
2019-01-13T13:20:35.499Z,10.30
2019-01-13T13:23:05.355Z,10.30
2019-01-13T13:25:34.244Z,10.30
2019-01-13T13:28:03.232Z,10.30
2019-01-13T13:30:32.164Z,10.30
2019-01-13T13:33:01.188Z,10.40
2019-01-13T13:35:30.351Z,10.60
2019-01-13T13:37:59.332Z,10.60
2019-01-13T13:40:28.680Z,10.60
2019-01-13T13:42:57.588Z,10.60
2019-01-13T13:45:26.464Z,10.60
2019-01-13T13:47:55.452Z,10.50
2019-01-13T13:50:25.742Z,10.60
2019-01-13T13:52:54.967Z,10.50
2019-01-13T13:55:24.018Z,10.50
2019-01-13T13:57:53.016Z,10.50
2019-01-13T14:00:24.225Z,10.50
2019-01-13T14:02:53.357Z,10.50
2019-01-13T14:05:22.515Z,10.50
2019-01-13T14:07:51.544Z,10.50
2019-01-13T14:10:23.023Z,10.40
2019-01-13T14:12:51.972Z,10.30
2019-01-13T14:15:20.972Z,10.30
2019-01-13T14:17:50.301Z,10.20
2019-01-13T14:20:19.424Z,10.20
2019-01-13T14:22:48.372Z,10.10
2019-01-13T14:25:17.316Z,10.10
2019-01-13T14:27:46.200Z,10.10
2019-01-13T14:30:17.812Z,10.00
2019-01-13T14:32:47.016Z,9.90
2019-01-13T14:35:16.232Z,9.80
2019-01-13T14:37:45.580Z,9.80
2019-01-13T14:40:16.794Z,9.80
2019-01-13T14:42:46.024Z,9.70
2019-01-13T14:45:17.100Z,9.80
2019-01-13T14:47:46.201Z,9.70
2019-01-13T14:50:17.594Z,9.70
2019-01-13T14:52:46.946Z,9.70
2019-01-13T14:55:16.475Z,9.70
2019-01-13T14:57:45.432Z,9.70
2019-01-13T15:00:20.281Z,9.80
2019-01-13T15:02:49.240Z,9.80
2019-01-13T15:05:18.180Z,9.80
2019-01-13T15:07:47.889Z,9.90
2019-01-13T15:10:17.792Z,9.90
2019-01-13T15:12:46.809Z,10.00
2019-01-13T15:15:16.047Z,10.00
2019-01-13T15:17:45.376Z,10.00
2019-01-13T15:20:16.300Z,10.00
2019-01-13T15:22:45.509Z,10.00
2019-01-13T15:25:20.332Z,10.10
2019-01-13T15:27:49.350Z,10.10
2019-01-13T15:30:23.487Z,10.10
2019-01-13T15:32:52.401Z,10.10
2019-01-13T15:35:21.341Z,10.20
2019-01-13T15:37:50.345Z,10.20
2019-01-13T15:40:20.120Z,10.20
2019-01-13T15:42:50.217Z,10.30
2019-01-13T15:45:19.434Z,10.30
2019-01-13T15:47:48.428Z,10.30
2019-01-13T15:50:19.801Z,10.30
2019-01-13T15:52:49.281Z,10.40
2019-01-13T15:55:18.369Z,10.40
2019-01-13T15:57:47.368Z,10.40
2019-01-13T16:00:30.838Z,10.50
2019-01-13T16:02:59.832Z,10.50
2019-01-13T16:05:28.745Z,10.50
2019-01-13T16:07:57.628Z,10.50
2019-01-13T16:10:26.868Z,10.50
2019-01-13T16:12:55.846Z,10.40
2019-01-13T16:15:25.035Z,10.40
2019-01-13T16:17:54.411Z,10.40
2019-01-13T16:20:25.824Z,10.40
2019-01-13T16:22:54.796Z,10.40
2019-01-13T16:25:23.660Z,10.40
2019-01-13T16:27:52.531Z,10.40
2019-01-13T16:30:23.121Z,10.40
2019-01-13T16:32:52.021Z,10.40
2019-01-13T16:35:21.313Z,10.30
2019-01-13T16:37:50.192Z,10.30
2019-01-13T16:40:21.009Z,10.50
2019-01-13T16:42:50.000Z,10.50
2019-01-13T16:45:18.960Z,10.50
2019-01-13T16:47:48.129Z,10.50
2019-01-13T16:50:21.956Z,10.40
2019-01-13T16:52:52.603Z,10.40
2019-01-13T16:55:22.276Z,10.50
2019-01-13T16:57:51.213Z,10.50
2019-01-13T17:00:22.071Z,10.50
2019-01-13T17:02:51.108Z,10.60
2019-01-13T17:05:21.340Z,10.60
2019-01-13T17:07:50.301Z,10.60
2019-01-13T17:10:23.592Z,10.60
2019-01-13T17:12:52.560Z,10.60
2019-01-13T17:15:27.347Z,10.60
2019-01-13T17:17:56.280Z,10.60
2019-01-13T17:20:25.231Z,10.60
2019-01-13T17:22:54.171Z,10.50
2019-01-13T17:25:24.656Z,10.50
2019-01-13T17:27:53.648Z,10.40
2019-01-13T17:30:33.662Z,10.40
2019-01-13T17:33:03.021Z,10.30
2019-01-13T17:35:32.016Z,10.20
2019-01-13T17:38:00.972Z,10.20
2019-01-13T17:40:30.048Z,10.10
2019-01-13T17:42:59.213Z,10.10
2019-01-13T17:45:30.252Z,10.10
2019-01-13T17:47:59.227Z,10.20
2019-01-13T17:50:28.532Z,10.10
2019-01-13T17:52:58.176Z,10.20
2019-01-13T17:55:28.350Z,10.20
2019-01-13T17:57:57.480Z,10.20
2019-01-13T18:00:29.329Z,10.20
2019-01-13T18:02:59.079Z,10.20
2019-01-13T18:05:27.967Z,10.20
2019-01-13T18:07:56.936Z,10.20
2019-01-13T18:10:25.940Z,10.20
2019-01-13T18:12:54.836Z,10.20
2019-01-13T18:15:23.829Z,10.20
2019-01-13T18:17:52.729Z,10.20
2019-01-13T18:20:21.872Z,10.30
2019-01-13T18:22:50.719Z,10.30
2019-01-13T18:25:19.628Z,10.40
2019-01-13T18:27:48.520Z,10.40
2019-01-13T18:30:20.417Z,10.50
2019-01-13T18:32:49.710Z,10.50
2019-01-13T18:35:19.673Z,10.50
2019-01-13T18:37:48.988Z,10.50
2019-01-13T18:40:18.660Z,10.60
2019-01-13T18:42:47.483Z,10.70
2019-01-13T18:45:17.605Z,10.70
2019-01-13T18:47:46.560Z,10.70
2019-01-13T18:50:17.436Z,10.70
2019-01-13T18:52:52.104Z,10.70
2019-01-13T18:55:20.996Z,10.70
2019-01-13T18:57:49.794Z,10.70
2019-01-13T19:00:20.148Z,10.70
2019-01-13T19:02:49.166Z,10.60
2019-01-13T19:05:21.313Z,10.60
2019-01-13T19:07:50.298Z,10.60
2019-01-13T19:10:26.236Z,10.50
2019-01-13T19:13:15.000Z,10.50
2019-01-13T19:15:44.708Z,10.50
2019-01-13T19:18:13.525Z,10.40
2019-01-13T19:20:42.492Z,10.50
2019-01-13T19:23:14.720Z,10.50
2019-01-13T19:25:43.868Z,10.50
2019-01-13T19:28:12.817Z,10.50
2019-01-13T19:30:41.708Z,10.50
2019-01-13T19:33:10.972Z,10.50
2019-01-13T19:35:39.887Z,10.50
2019-01-13T19:38:08.780Z,10.40
2019-01-13T19:40:37.688Z,10.40
2019-01-13T19:43:06.807Z,10.40
2019-01-13T19:45:35.904Z,10.40
2019-01-13T19:48:05.284Z,10.30
2019-01-13T19:50:34.568Z,10.30
2019-01-13T19:53:03.592Z,10.30
2019-01-13T19:55:32.767Z,10.30
2019-01-13T19:58:01.712Z,10.30
2019-01-13T20:00:33.187Z,10.30
2019-01-13T20:03:02.176Z,10.30
2019-01-13T20:05:31.081Z,10.30
2019-01-13T20:08:00.444Z,10.40
2019-01-13T20:10:29.325Z,10.40
2019-01-13T20:13:01.230Z,10.40
2019-01-13T20:15:30.153Z,10.40
2019-01-13T20:17:59.324Z,10.40
2019-01-13T20:20:28.201Z,10.40
2019-01-13T20:22:57.397Z,10.30
2019-01-13T20:25:26.282Z,10.30
2019-01-13T20:27:55.148Z,10.30
2019-01-13T20:30:29.112Z,10.20
2019-01-13T20:32:58.098Z,10.20
2019-01-13T20:35:27.040Z,10.10
2019-01-13T20:37:56.006Z,10.10
2019-01-13T20:40:24.992Z,10.10
2019-01-13T20:42:53.928Z,10.00
2019-01-13T20:45:31.219Z,10.00
2019-01-13T20:48:00.129Z,10.00
2019-01-13T20:50:29.224Z,9.90
2019-01-13T20:52:58.203Z,9.90
2019-01-13T20:55:27.372Z,9.90
2019-01-13T20:57:57.724Z,9.90
2019-01-13T21:00:27.245Z,9.90
2019-01-13T21:02:56.540Z,9.90
2019-01-13T21:05:26.924Z,10.00
2019-01-13T21:07:56.543Z,10.00
2019-01-13T21:10:26.320Z,10.00
2019-01-13T21:12:55.615Z,10.00
2019-01-13T21:15:29.197Z,9.90
2019-01-13T21:17:58.389Z,10.00
2019-01-13T21:20:27.448Z,10.00
2019-01-13T21:22:56.920Z,10.00
2019-01-13T21:25:25.921Z,10.00
2019-01-13T21:27:57.388Z,10.10
2019-01-13T21:30:27.552Z,10.10
2019-01-13T21:32:56.719Z,10.10
2019-01-13T21:35:25.696Z,10.10
2019-01-13T21:37:54.604Z,10.10
2019-01-13T21:40:23.924Z,10.20
2019-01-13T21:42:52.996Z,10.10
2019-01-13T21:45:22.661Z,10.10
2019-01-13T21:47:51.594Z,10.00
2019-01-13T21:50:24.279Z,10.00
2019-01-13T21:52:53.565Z,10.00
2019-01-13T21:55:23.488Z,10.00
2019-01-13T21:57:52.471Z,10.00
2019-01-13T22:00:24.132Z,10.00
2019-01-13T22:02:53.846Z,10.00
2019-01-13T22:05:23.662Z,9.90
2019-01-13T22:07:53.012Z,9.90
2019-01-13T22:10:22.767Z,9.90
2019-01-13T22:12:51.746Z,9.90
2019-01-13T22:15:21.266Z,9.90
2019-01-13T22:17:50.176Z,9.90
2019-01-13T22:20:20.772Z,9.90
2019-01-13T22:22:50.113Z,9.90
2019-01-13T22:25:20.003Z,9.80
2019-01-13T22:27:48.993Z,9.80
2019-01-13T22:30:20.021Z,9.80
2019-01-13T22:32:48.976Z,9.80
2019-01-13T22:35:17.975Z,9.80
2019-01-13T22:37:47.032Z,9.80
2019-01-13T22:40:17.023Z,9.80
2019-01-13T22:42:46.300Z,9.70
2019-01-13T22:45:17.254Z,9.70
2019-01-13T22:47:46.513Z,9.60
2019-01-13T22:50:15.984Z,9.60
2019-01-13T22:52:44.997Z,9.50
2019-01-13T22:55:14.018Z,9.60
2019-01-13T22:57:42.922Z,9.50
2019-01-13T23:00:57.228Z,9.50
2019-01-13T23:03:26.142Z,9.40
2019-01-13T23:05:55.887Z,9.40
2019-01-13T23:08:24.994Z,9.40
2019-01-13T23:10:53.864Z,9.30
2019-01-13T23:13:22.843Z,9.30
2019-01-13T23:15:51.823Z,9.30
2019-01-13T23:18:20.927Z,9.30
2019-01-13T23:20:50.132Z,9.30
2019-01-13T23:23:19.032Z,9.30
2019-01-13T23:25:47.833Z,9.30
2019-01-13T23:28:16.858Z,9.20
2019-01-13T23:30:45.789Z,9.20
2019-01-13T23:33:14.644Z,9.20
2019-01-13T23:35:43.572Z,9.10
2019-01-13T23:38:12.564Z,9.10
2019-01-13T23:40:41.478Z,9.10
2019-01-13T23:43:10.440Z,9.00
2019-01-13T23:45:39.500Z,9.00
2019-01-13T23:48:08.560Z,9.00
2019-01-13T23:50:37.396Z,9.00
2019-01-13T23:53:06.344Z,9.00
2019-01-13T23:55:35.330Z,9.00
2019-01-13T23:58:04.227Z,8.90
